Time;durP1;ratioP1;P1;durP2;ratioP2;P2;SDS_P1;SDS_P2;PMS_P1;PMS_P2;Temp;Humidity;BMP_temperature;BMP_pressure;BME280_temperature;BME280_humidity;BME280_pressure;Samples;Min_cycle;Max_cycle;Signal;HPM_P1;HPM_P2
2021/09/30 00:00:23;;;;;;;6.82;2.40;;;11.00;99.90;;;;;;5006271;28;20160;-67
2021/09/30 00:02:49;;;;;;;4.97;2.42;;;10.90;99.90;;;;;;5007429;28;20949;-67
2021/09/30 00:05:14;;;;;;;4.60;2.42;;;11.00;99.90;;;;;;5005858;28;20022;-67
2021/09/30 00:07:40;;;;;;;8.15;2.65;;;11.00;99.90;;;;;;5005892;28;20514;-67
2021/09/30 00:10:09;;;;;;;6.60;2.25;;;11.00;99.90;;;;;;5005839;28;20416;-67
2021/09/30 00:12:40;;;;;;;7.47;2.45;;;11.00;99.90;;;;;;5004946;28;20037;-67
2021/09/30 00:15:12;;;;;;;8.60;2.35;;;11.00;99.90;;;;;;5005716;28;20026;-67
2021/09/30 00:34:07;;;;;;;12.93;2.47;;;11.00;99.90;;;;;;4983437;28;20030;-67
2021/09/30 00:42:26;;;;;;;6.13;2.90;;;11.00;99.90;;;;;;4993684;28;20109;-67
2021/09/30 00:50:25;;;;;;;6.75;2.60;;;11.10;99.90;;;;;;4980028;28;20964;-67
2021/09/30 00:56:00;;;;;;;7.60;3.20;;;11.00;99.90;;;;;;4991200;28;20942;-67
2021/09/30 01:18:45;;;;;;;9.27;3.30;;;11.00;99.90;;;;;;5010348;28;20022;-68
2021/09/30 02:19:55;;;;;;;7.80;1.80;;;10.70;99.90;;;;;;4951888;28;20035;-65
2021/09/30 03:00:34;;;;;;;6.40;1.33;;;10.70;99.90;;;;;;5000716;28;20026;-66
2021/09/30 03:03:02;;;;;;;8.30;1.48;;;10.60;99.90;;;;;;5003083;28;20049;-65
2021/09/30 03:05:28;;;;;;;7.90;1.60;;;10.70;99.90;;;;;;5008741;28;20068;-66
2021/09/30 03:07:55;;;;;;;9.68;1.83;;;10.60;99.90;;;;;;4997036;28;20038;-65
2021/09/30 03:10:22;;;;;;;6.05;1.20;;;10.50;99.90;;;;;;5003203;28;20052;-68
2021/09/30 03:12:50;;;;;;;7.45;1.40;;;10.50;99.90;;;;;;5007657;28;20033;-66
2021/09/30 03:15:31;;;;;;;10.57;1.70;;;10.50;99.90;;;;;;5002764;28;20026;-68
2021/09/30 03:23:11;;;;;;;10.57;2.00;;;10.50;99.90;;;;;;5006785;28;20069;-66
2021/09/30 03:25:38;;;;;;;11.23;1.52;;;10.50;99.90;;;;;;5005913;28;20514;-66
2021/09/30 03:28:05;;;;;;;9.75;1.65;;;10.50;99.90;;;;;;5005721;28;20034;-68
2021/09/30 03:30:31;;;;;;;11.68;1.75;;;10.50;99.90;;;;;;5004243;28;20041;-66
2021/09/30 03:33:01;;;;;;;7.80;1.33;;;10.50;99.90;;;;;;5006213;28;20034;-68
2021/09/30 03:35:27;;;;;;;6.90;1.23;;;10.50;99.90;;;;;;4998484;28;20030;-66
2021/09/30 03:37:53;;;;;;;9.52;2.03;;;10.50;99.90;;;;;;4999405;28;20031;-66
2021/09/30 03:40:19;;;;;;;12.27;1.58;;;10.50;99.90;;;;;;5008272;28;20061;-68
2021/09/30 03:42:45;;;;;;;8.05;1.65;;;10.50;99.90;;;;;;5008697;28;20053;-66
2021/09/30 03:45:11;;;;;;;5.53;1.20;;;10.40;99.90;;;;;;5007189;28;20076;-66
2021/09/30 03:47:37;;;;;;;6.05;1.58;;;10.40;99.90;;;;;;5008705;28;20034;-66
2021/09/30 03:50:06;;;;;;;5.80;1.50;;;10.40;99.90;;;;;;5008409;28;20037;-66
2021/09/30 04:00:26;;;;;;;10.23;1.40;;;10.30;99.90;;;;;;5006407;28;20105;-66
2021/09/30 04:02:52;;;;;;;9.48;1.45;;;10.30;99.90;;;;;;5007555;28;20144;-66
2021/09/30 04:05:17;;;;;;;8.93;1.40;;;10.30;99.90;;;;;;5008875;28;20029;-67
2021/09/30 04:07:43;;;;;;;9.93;2.08;;;10.30;99.90;;;;;;5004727;28;20052;-66
2021/09/30 04:10:09;;;;;;;9.60;1.40;;;10.30;99.90;;;;;;4997771;28;20039;-66
2021/09/30 04:12:35;;;;;;;9.23;1.80;;;10.30;99.90;;;;;;5001216;28;20495;-66
2021/09/30 04:15:00;;;;;;;7.30;1.15;;;10.30;99.90;;;;;;5001430;28;20030;-66
2021/09/30 04:17:26;;;;;;;6.25;1.30;;;10.30;99.90;;;;;;4999525;28;20034;-66
2021/09/30 04:19:51;;;;;;;10.45;1.15;;;10.30;99.90;;;;;;5009244;28;20381;-66
2021/09/30 04:22:17;;;;;;;8.05;1.00;;;10.30;99.90;;;;;;5010288;28;20178;-66
2021/09/30 04:24:45;;;;;;;6.65;1.10;;;10.30;99.90;;;;;;5006711;28;20108;-66
2021/09/30 04:27:10;;;;;;;6.90;1.17;;;10.30;99.90;;;;;;4990153;28;20436;-67
2021/09/30 04:29:36;;;;;;;5.65;1.25;;;10.30;99.90;;;;;;5008479;28;20045;-66
2021/09/30 04:32:02;;;;;;;6.43;1.30;;;10.30;99.90;;;;;;5006710;28;20133;-66
2021/09/30 04:34:28;;;;;;;5.32;1.15;;;10.30;99.90;;;;;;5006647;28;20033;-66
2021/09/30 04:36:54;;;;;;;9.90;1.55;;;10.30;99.90;;;;;;5003333;28;20026;-66
2021/09/30 04:39:20;;;;;;;13.73;1.83;;;10.40;99.90;;;;;;4999424;28;20407;-67
2021/09/30 04:41:47;;;;;;;6.22;1.30;;;10.40;99.90;;;;;;5002733;28;20403;-67
2021/09/30 04:44:13;;;;;;;8.35;1.42;;;10.40;99.90;;;;;;4998205;28;20500;-66
2021/09/30 04:46:39;;;;;;;8.43;1.33;;;10.40;99.90;;;;;;5005608;28;20606;-66
2021/09/30 04:49:05;;;;;;;10.10;1.20;;;10.40;99.90;;;;;;5008068;28;20065;-66
2021/09/30 04:51:31;;;;;;;7.68;1.10;;;10.40;99.90;;;;;;5005918;28;20038;-67
2021/09/30 04:53:58;;;;;;;8.65;1.45;;;10.40;99.90;;;;;;5007434;28;20038;-67
2021/09/30 04:56:23;;;;;;;7.80;1.55;;;10.40;99.90;;;;;;5007387;28;20022;-66
2021/09/30 04:58:50;;;;;;;4.78;1.48;;;10.40;99.90;;;;;;5007146;28;20106;-66
2021/09/30 05:01:16;;;;;;;9.52;1.80;;;10.40;99.90;;;;;;5000218;28;20033;-66
2021/09/30 05:03:41;;;;;;;8.00;1.90;;;10.30;99.90;;;;;;5006572;28;20040;-67
2021/09/30 05:06:07;;;;;;;8.25;1.75;;;10.30;99.90;;;;;;5006559;28;20026;-66
2021/09/30 05:08:36;;;;;;;11.23;1.65;;;10.30;99.90;;;;;;5007502;28;20040;-66
2021/09/30 05:11:03;;;;;;;14.13;2.50;;;10.40;99.90;;;;;;5006772;28;20456;-67
2021/09/30 05:13:43;;;;;;;8.95;1.85;;;10.40;99.90;;;;;;5005856;28;20038;-66
2021/09/30 05:16:11;;;;;;;6.75;1.75;;;10.40;99.90;;;;;;5002218;28;20063;-66
2021/09/30 05:18:41;;;;;;;9.55;1.88;;;10.40;99.90;;;;;;5005432;28;20032;-66
2021/09/30 05:21:07;;;;;;;8.63;1.70;;;10.30;99.90;;;;;;5009315;28;20041;-66
2021/09/30 05:23:33;;;;;;;6.05;1.70;;;10.30;99.90;;;;;;5002545;28;20038;-66
2021/09/30 05:25:59;;;;;;;8.02;2.25;;;10.30;99.90;;;;;;5005979;28;20025;-67
2021/09/30 05:28:25;;;;;;;8.82;1.55;;;10.30;99.90;;;;;;5003117;28;20033;-67
2021/09/30 05:30:51;;;;;;;11.98;1.80;;;10.30;99.90;;;;;;4987695;28;20124;-66
2021/09/30 05:33:17;;;;;;;10.98;1.60;;;10.20;99.90;;;;;;5004811;28;20100;-67
2021/09/30 05:35:42;;;;;;;9.82;1.83;;;10.20;99.90;;;;;;5004823;28;20025;-67
2021/09/30 05:38:08;;;;;;;9.85;1.75;;;10.30;99.90;;;;;;5000000;28;20808;-67
2021/09/30 05:40:34;;;;;;;13.13;2.38;;;10.30;99.90;;;;;;5006995;28;20137;-67
2021/09/30 05:43:01;;;;;;;4.82;1.23;;;10.30;99.90;;;;;;5004864;28;20031;-68
2021/09/30 05:45:27;;;;;;;7.75;1.38;;;10.30;99.90;;;;;;5005482;28;20038;-66
2021/09/30 05:47:53;;;;;;;7.85;1.58;;;10.30;99.90;;;;;;5006311;28;20029;-67
2021/09/30 05:50:19;;;;;;;7.97;1.55;;;10.20;99.90;;;;;;5007595;28;20037;-67
2021/09/30 05:52:45;;;;;;;6.72;1.92;;;10.20;99.90;;;;;;5007214;28;20044;-67
2021/09/30 05:55:11;;;;;;;10.45;2.20;;;10.20;99.90;;;;;;5007312;28;20660;-67
2021/09/30 05:57:37;;;;;;;7.07;1.20;;;10.20;99.90;;;;;;5006870;28;20977;-68
2021/09/30 06:11:00;;;;;;;4.78;1.08;;;10.20;99.90;;;;;;5008483;28;20057;-66
2021/09/30 06:13:32;;;;;;;8.82;1.80;;;10.10;99.90;;;;;;5008235;28;20089;-66
2021/09/30 06:16:03;;;;;;;5.75;1.80;;;10.20;99.90;;;;;;5009034;28;20510;-67
2021/09/30 06:18:29;;;;;;;5.22;1.58;;;10.10;99.90;;;;;;5010267;28;20076;-67
2021/09/30 06:20:55;;;;;;;5.68;1.38;;;10.10;99.90;;;;;;5009627;28;20053;-67
2021/09/30 06:23:21;;;;;;;8.95;2.35;;;10.20;99.90;;;;;;4998815;28;20052;-67
2021/09/30 06:25:47;;;;;;;8.18;1.55;;;10.10;99.90;;;;;;5001544;28;20113;-67
2021/09/30 06:28:13;;;;;;;11.45;1.27;;;10.10;99.90;;;;;;5009786;28;20152;-70
2021/09/30 06:30:39;;;;;;;4.93;1.80;;;10.20;99.90;;;;;;4991396;28;20100;-67
2021/09/30 06:33:04;;;;;;;10.15;1.98;;;10.20;99.90;;;;;;5007805;28;20030;-68
2021/09/30 06:35:30;;;;;;;13.25;2.03;;;10.20;99.90;;;;;;5008457;28;20021;-66
2021/09/30 06:37:56;;;;;;;10.30;1.85;;;10.20;99.90;;;;;;5010810;28;20026;-69
2021/09/30 06:40:22;;;;;;;5.85;1.67;;;10.20;99.90;;;;;;5009514;28;20096;-68
2021/09/30 06:42:48;;;;;;;3.22;1.10;;;10.20;99.90;;;;;;5009314;28;20100;-68
2021/09/30 06:45:13;;;;;;;4.15;1.35;;;10.30;99.90;;;;;;5008172;28;20053;-67
2021/09/30 06:47:39;;;;;;;5.15;1.10;;;10.40;99.90;;;;;;5006085;28;20384;-68
2021/09/30 06:50:08;;;;;;;9.50;2.75;;;10.40;99.90;;;;;;5013690;28;20037;-68
2021/09/30 06:52:34;;;;;;;7.07;1.20;;;10.60;99.90;;;;;;5009090;28;20033;-68
2021/09/30 06:55:00;;;;;;;9.25;1.90;;;10.80;99.90;;;;;;5009873;28;20048;-67
2021/09/30 06:57:29;;;;;;;10.95;1.63;;;10.80;99.90;;;;;;5007901;28;20030;-68
2021/09/30 06:59:59;;;;;;;7.75;1.55;;;10.70;99.90;;;;;;5009276;28;20030;-68
2021/09/30 07:02:26;;;;;;;3.50;1.10;;;10.70;99.90;;;;;;5008265;28;20480;-68
2021/09/30 07:04:51;;;;;;;7.80;1.60;;;10.70;99.90;;;;;;5009438;28;20120;-68
2021/09/30 07:07:17;;;;;;;3.95;1.20;;;10.70;99.90;;;;;;5006600;28;20053;-68
2021/09/30 07:09:45;;;;;;;3.22;1.15;;;10.80;99.90;;;;;;5007571;28;20069;-67
2021/09/30 07:12:12;;;;;;;8.43;1.27;;;10.80;99.90;;;;;;5012567;28;20069;-68
2021/09/30 07:14:38;;;;;;;7.88;1.27;;;10.80;99.90;;;;;;5005826;28;20030;-67
2021/09/30 07:17:05;;;;;;;7.88;1.88;;;10.80;99.90;;;;;;5008447;28;20109;-67
2021/09/30 07:19:33;;;;;;;6.68;1.38;;;10.80;99.90;;;;;;5009327;28;20391;-67
2021/09/30 07:21:59;;;;;;;8.40;1.40;;;10.90;99.90;;;;;;5007827;28;20030;-68
2021/09/30 07:24:25;;;;;;;5.97;1.60;;;10.90;99.90;;;;;;5010033;28;20028;-67
2021/09/30 07:26:51;;;;;;;6.35;1.52;;;11.00;99.90;;;;;;5001958;28;20022;-68
2021/09/30 07:29:16;;;;;;;9.57;1.92;;;11.00;99.90;;;;;;5003448;28;20042;-68
2021/09/30 07:31:42;;;;;;;8.10;1.80;;;11.00;99.90;;;;;;5005977;28;20379;-67
2021/09/30 07:34:12;;;;;;;6.18;1.42;;;11.10;99.90;;;;;;5004549;28;20025;-68
2021/09/30 07:36:40;;;;;;;3.35;1.00;;;11.10;99.90;;;;;;5005746;28;20026;-66
2021/09/30 07:39:06;;;;;;;3.60;1.50;;;11.00;99.90;;;;;;4991134;28;20030;-67
2021/09/30 07:41:32;;;;;;;7.68;1.20;;;11.00;99.90;;;;;;5002679;28;20084;-67
2021/09/30 07:43:57;;;;;;;7.03;0.95;;;10.90;99.90;;;;;;5001444;28;20030;-67
2021/09/30 07:46:23;;;;;;;7.45;2.03;;;11.00;99.90;;;;;;5003354;28;20030;-67
2021/09/30 07:48:49;;;;;;;6.25;1.65;;;11.00;99.90;;;;;;4988913;28;20026;-67
2021/09/30 07:51:16;;;;;;;7.63;1.55;;;11.00;99.90;;;;;;4999349;28;20049;-67
2021/09/30 07:53:42;;;;;;;2.53;1.10;;;11.10;99.90;;;;;;5003144;28;20089;-67
2021/09/30 07:56:08;;;;;;;11.73;1.40;;;11.10;99.90;;;;;;5000642;28;20055;-67
2021/09/30 07:58:34;;;;;;;4.72;1.25;;;11.10;99.90;;;;;;5009085;28;20089;-67
2021/09/30 08:00:59;;;;;;;6.47;1.17;;;11.20;99.90;;;;;;5006743;28;20105;-67
2021/09/30 08:03:27;;;;;;;8.95;3.33;;;11.20;99.90;;;;;;5009270;28;20033;-69
2021/09/30 08:05:53;;;;;;;5.22;1.58;;;11.30;99.90;;;;;;5008665;28;20037;-69
2021/09/30 08:08:19;;;;;;;5.35;1.42;;;11.40;99.90;;;;;;5008106;28;20021;-68
2021/09/30 08:10:45;;;;;;;5.13;1.25;;;11.60;99.90;;;;;;5011088;28;20038;-71
2021/09/30 08:13:11;;;;;;;7.13;1.55;;;11.80;99.90;;;;;;4993069;28;20080;-70
2021/09/30 08:15:36;;;;;;;8.18;2.03;;;11.90;99.90;;;;;;5010022;28;20033;-70
2021/09/30 08:18:03;;;;;;;7.95;1.55;;;11.90;99.90;;;;;;5007403;28;20026;-71
2021/09/30 08:20:29;;;;;;;6.32;1.50;;;11.90;99.90;;;;;;5009750;28;20060;-69
2021/09/30 08:22:54;;;;;;;4.95;1.23;;;11.80;99.90;;;;;;5008921;28;20645;-72
2021/09/30 08:25:23;;;;;;;6.00;1.42;;;11.70;99.90;;;;;;5009057;28;20034;-71
2021/09/30 08:27:48;;;;;;;6.35;1.58;;;11.70;99.90;;;;;;5007423;28;20803;-71
2021/09/30 08:30:14;;;;;;;4.90;1.25;;;11.70;99.90;;;;;;5008308;28;20033;-72
2021/09/30 08:32:41;;;;;;;4.05;0.95;;;11.80;99.90;;;;;;5008668;28;20625;-71
2021/09/30 08:35:07;;;;;;;4.55;1.13;;;11.80;99.90;;;;;;5010124;28;20059;-71
2021/09/30 08:37:33;;;;;;;5.32;1.00;;;11.90;99.90;;;;;;5011583;28;20029;-71
2021/09/30 08:39:59;;;;;;;7.63;1.65;;;12.00;99.90;;;;;;5008294;28;20523;-71
2021/09/30 08:42:25;;;;;;;4.88;1.50;;;12.00;99.90;;;;;;5002470;28;20812;-71
2021/09/30 08:44:52;;;;;;;3.63;0.95;;;12.10;99.90;;;;;;5008847;28;20026;-72
2021/09/30 08:47:20;;;;;;;3.30;0.85;;;12.20;99.90;;;;;;5010263;28;20053;-71
2021/09/30 08:49:46;;;;;;;4.30;1.13;;;12.30;99.90;;;;;;5011258;28;20037;-71
2021/09/30 08:52:12;;;;;;;7.00;1.35;;;12.40;99.90;;;;;;5009915;28;20033;-71
2021/09/30 08:54:37;;;;;;;4.95;1.10;;;12.40;99.90;;;;;;5011421;28;20028;-72
2021/09/30 08:57:06;;;;;;;6.38;1.40;;;12.50;99.90;;;;;;5010183;28;20030;-72
2021/09/30 08:59:32;;;;;;;7.07;1.98;;;12.70;99.90;;;;;;4992586;28;20057;-72
2021/09/30 09:02:14;;;;;;;8.13;1.85;;;12.80;99.40;;;;;;4994547;28;20030;-72
2021/09/30 09:04:55;;;;;;;7.43;1.40;;;12.90;98.90;;;;;;5008609;28;20034;-75
2021/09/30 09:07:31;;;;;;;7.30;1.40;;;12.90;98.70;;;;;;5010443;28;20030;-69
2021/09/30 09:09:59;;;;;;;5.43;1.70;;;12.90;99.20;;;;;;5010678;28;20030;-71
2021/09/30 09:12:26;;;;;;;5.35;1.20;;;12.90;98.50;;;;;;4992296;28;20044;-68
2021/09/30 09:14:52;;;;;;;9.35;1.20;;;12.90;98.20;;;;;;5010831;28;20034;-71
2021/09/30 09:17:19;;;;;;;6.53;1.27;;;12.80;97.50;;;;;;5010634;28;20088;-72
2021/09/30 09:19:48;;;;;;;5.43;1.83;;;12.80;98.10;;;;;;5014173;28;20093;-71
2021/09/30 09:22:18;;;;;;;7.28;1.92;;;12.80;97.40;;;;;;5010072;28;20033;-71
2021/09/30 09:24:55;;;;;;;7.53;1.42;;;12.80;97.50;;;;;;5010419;28;20033;-71
2021/09/30 09:27:22;;;;;;;6.40;1.30;;;12.90;98.30;;;;;;5009655;28;20395;-70
2021/09/30 09:29:47;;;;;;;3.72;1.52;;;12.90;98.00;;;;;;4997424;28;20410;-76
2021/09/30 09:32:13;;;;;;;6.97;2.08;;;13.10;98.00;;;;;;4989179;28;20033;-71
2021/09/30 09:34:40;;;;;;;6.93;1.50;;;13.00;96.80;;;;;;5005251;28;20060;-73
2021/09/30 09:37:29;;;;;;;5.55;1.58;;;13.10;97.60;;;;;;5008221;28;20022;-73
2021/09/30 09:39:56;;;;;;;6.07;1.27;;;13.10;97.60;;;;;;5011149;28;20372;-73
2021/09/30 09:42:27;;;;;;;9.10;2.30;;;13.10;97.30;;;;;;5006865;28;20030;-73
2021/09/30 09:44:59;;;;;;;4.85;1.63;;;13.10;97.00;;;;;;5012551;28;20034;-73
2021/09/30 09:47:26;;;;;;;;;;;13.20;97.50;;;;;;4994187;28;20030;-73
2021/09/30 09:50:11;;;;;;;3.92;1.08;;;13.40;97.10;;;;;;5010323;28;20433;-72
2021/09/30 09:53:06;;;;;;;4.55;1.60;;;13.50;97.20;;;;;;5011172;28;20080;-72
2021/09/30 09:55:38;;;;;;;5.82;1.58;;;13.50;97.20;;;;;;4995107;28;20113;-72
2021/09/30 09:58:07;;;;;;;5.82;1.58;;;13.60;96.20;;;;;;5010452;28;20025;-71
2021/09/30 10:00:37;;;;;;;6.85;1.67;;;13.60;97.10;;;;;;5008536;28;20026;-72
2021/09/30 10:03:17;;;;;;;9.95;1.85;;;13.80;96.80;;;;;;5011198;28;20030;-71
2021/09/30 10:05:45;;;;;;;7.78;2.00;;;13.90;96.20;;;;;;5008962;28;20580;-71
2021/09/30 10:08:12;;;;;;;5.88;1.75;;;14.10;95.80;;;;;;5008643;28;20057;-72
2021/09/30 10:10:38;;;;;;;7.60;1.58;;;14.10;96.50;;;;;;5010651;28;20045;-72
2021/09/30 10:13:05;;;;;;;9.43;1.80;;;14.20;95.70;;;;;;4993286;28;20030;-72
2021/09/30 10:15:33;;;;;;;9.57;1.90;;;14.40;94.80;;;;;;5009793;28;20026;-72
2021/09/30 10:18:01;;;;;;;6.35;1.45;;;14.40;94.70;;;;;;5008410;28;20050;-73
2021/09/30 10:20:27;;;;;;;8.88;1.40;;;14.40;95.10;;;;;;5011170;28;20038;-71
2021/09/30 10:22:53;;;;;;;10.35;1.95;;;14.40;95.00;;;;;;5010921;28;20064;-72
2021/09/30 10:25:20;;;;;;;8.30;2.13;;;14.50;94.70;;;;;;5008411;28;20491;-68
2021/09/30 10:27:55;;;;;;;11.45;2.60;;;14.50;94.70;;;;;;5010296;28;20030;-71
2021/09/30 10:30:51;;;;;;;8.00;1.55;;;14.60;94.30;;;;;;5010465;28;20065;-69
2021/09/30 10:33:40;;;;;;;7.63;1.50;;;14.60;94.50;;;;;;5009351;28;20042;-70
2021/09/30 10:36:34;;;;;;;4.43;1.38;;;14.70;94.90;;;;;;4993160;28;20038;-69
2021/09/30 10:39:23;;;;;;;5.55;1.42;;;14.80;94.80;;;;;;5009058;28;20361;-71
2021/09/30 10:42:04;;;;;;;8.48;1.83;;;14.80;93.70;;;;;;5009846;28;20049;-72
2021/09/30 10:44:35;;;;;;;11.13;1.70;;;14.90;93.80;;;;;;5011618;28;20073;-72
2021/09/30 10:47:20;;;;;;;6.43;1.48;;;15.00;93.80;;;;;;5009725;28;20036;-72
2021/09/30 10:49:54;;;;;;;8.90;1.45;;;15.00;93.10;;;;;;5013553;28;20072;-72
2021/09/30 10:52:23;;;;;;;5.10;1.30;;;15.10;92.50;;;;;;5010668;28;20030;-72
2021/09/30 10:55:20;;;;;;;7.18;1.67;;;15.50;93.80;;;;;;5010432;28;20049;-71
2021/09/30 10:57:47;;;;;;;5.35;1.65;;;16.70;91.60;;;;;;4993884;28;20121;-72
2021/09/30 11:00:19;;;;;;;8.63;1.90;;;18.50;90.10;;;;;;4993498;28;20261;-69
2021/09/30 11:02:59;;;;;;;4.78;1.55;;;18.60;86.60;;;;;;5000335;28;20022;-69
2021/09/30 11:05:26;;;;;;;6.50;1.42;;;18.80;79.20;;;;;;5005839;28;20097;-72
2021/09/30 11:08:20;;;;;;;6.57;1.35;;;18.60;79.00;;;;;;5010088;28;20030;-71
2021/09/30 11:13:32;;;;;;;6.30;1.38;;;17.80;81.00;;;;;;5004842;28;20435;-72
2021/09/30 11:16:11;;;;;;;7.65;1.77;;;17.70;82.00;;;;;;5003094;28;20037;-72
2021/09/30 11:18:51;;;;;;;10.60;1.70;;;17.80;82.60;;;;;;5008451;28;20030;-72
2021/09/30 11:21:32;;;;;;;4.85;1.50;;;17.90;84.00;;;;;;4992321;28;20040;-72
2021/09/30 11:24:05;;;;;;;4.88;1.30;;;17.60;84.30;;;;;;5010790;28;20114;-71
2021/09/30 11:26:48;;;;;;;7.05;1.42;;;17.40;87.90;;;;;;4992947;28;20053;-70
2021/09/30 11:29:22;;;;;;;8.02;1.98;;;17.50;82.60;;;;;;5008404;28;20034;-72
2021/09/30 11:32:08;;;;;;;5.97;1.60;;;17.40;84.90;;;;;;5010471;28;20037;-72
2021/09/30 11:34:39;;;;;;;8.05;1.90;;;17.30;84.20;;;;;;5010885;28;20026;-70
2021/09/30 11:37:17;;;;;;;6.68;1.33;;;17.20;83.30;;;;;;5007635;28;20026;-71
2021/09/30 11:39:49;;;;;;;7.85;1.73;;;16.80;81.90;;;;;;5007328;28;20105;-70
2021/09/30 11:42:20;;;;;;;7.88;1.40;;;16.50;82.60;;;;;;4990912;28;20391;-70
2021/09/30 11:44:58;;;;;;;8.85;1.88;;;16.30;86.70;;;;;;5008711;28;20025;-70
2021/09/30 11:47:25;;;;;;;9.48;1.80;;;16.20;87.50;;;;;;5006628;28;20057;-70
2021/09/30 11:49:51;;;;;;;117.28;72.13;;;16.30;88.30;;;;;;5008226;28;20427;-68
2021/09/30 11:52:16;;;;;;;48.25;26.17;;;16.50;86.90;;;;;;5009962;28;20026;-67
2021/09/30 11:54:42;;;;;;;104.70;64.00;;;16.70;83.40;;;;;;5010601;28;20234;-67
2021/09/30 11:57:18;;;;;;;38.38;24.08;;;16.90;84.00;;;;;;5009046;28;20083;-66
2021/09/30 11:59:44;;;;;;;10.45;1.70;;;17.30;81.50;;;;;;5005618;28;20553;-68
2021/09/30 12:02:09;;;;;;;9.60;1.70;;;17.70;81.30;;;;;;5003137;28;20038;-68
2021/09/30 12:04:51;;;;;;;4.55;1.35;;;17.80;77.60;;;;;;4993942;28;20033;-68
2021/09/30 12:07:20;;;;;;;4.57;1.40;;;17.90;78.70;;;;;;5007516;28;20618;-67
2021/09/30 12:10:06;;;;;;;6.85;1.45;;;17.60;76.70;;;;;;5010376;28;20503;-67
2021/09/30 12:12:35;;;;;;;10.15;1.38;;;17.40;76.00;;;;;;5004556;28;20049;-66
2021/09/30 12:15:04;;;;;;;5.82;1.40;;;17.00;76.00;;;;;;5009210;28;20037;-69
2021/09/30 12:17:36;;;;;;;7.32;1.60;;;16.80;76.00;;;;;;5010187;28;20029;-67
2021/09/30 12:20:04;;;;;;;5.88;1.40;;;16.60;77.10;;;;;;5009166;28;20025;-69
2021/09/30 12:22:45;;;;;;;9.05;1.63;;;16.40;77.90;;;;;;5010376;28;20622;-67
2021/09/30 12:25:14;;;;;;;7.53;1.50;;;16.20;76.80;;;;;;5006800;28;20042;-67
2021/09/30 12:27:44;;;;;;;6.78;1.85;;;16.00;79.50;;;;;;4972292;28;20029;-67
2021/09/30 12:30:19;;;;;;;8.15;1.75;;;15.90;81.00;;;;;;5007642;28;20033;-72
2021/09/30 12:32:48;;;;;;;7.05;1.80;;;15.80;82.50;;;;;;5007525;28;20026;-68
2021/09/30 12:35:27;;;;;;;8.98;1.95;;;15.70;80.90;;;;;;5002676;28;20026;-68
2021/09/30 12:37:59;;;;;;;5.07;1.58;;;15.80;80.20;;;;;;5003518;28;20026;-68
2021/09/30 12:40:41;;;;;;;9.65;2.13;;;15.80;78.70;;;;;;4997507;28;20026;-68
2021/09/30 12:43:18;;;;;;;9.13;1.63;;;15.80;79.80;;;;;;5006952;28;20132;-66
2021/09/30 12:45:56;;;;;;;10.93;2.55;;;15.90;80.00;;;;;;5009846;28;20105;-66
2021/09/30 12:48:24;;;;;;;5.00;1.73;;;15.90;80.10;;;;;;5008407;28;20033;-66
2021/09/30 12:50:52;;;;;;;4.45;1.15;;;15.80;80.10;;;;;;5009545;28;20045;-69
2021/09/30 12:53:21;;;;;;;8.20;2.08;;;15.70;80.00;;;;;;5009104;28;20712;-68
2021/09/30 12:55:49;;;;;;;3.40;1.30;;;15.70;82.10;;;;;;5008223;28;20209;-69
2021/09/30 12:58:35;;;;;;;8.68;1.95;;;15.60;83.10;;;;;;5008900;28;20026;-69
2021/09/30 13:01:26;;;;;;;5.80;1.55;;;15.40;78.90;;;;;;5005663;28;20575;-68
2021/09/30 13:04:06;;;;;;;8.82;1.50;;;15.50;83.00;;;;;;4993645;28;20423;-67
2021/09/30 13:06:32;;;;;;;8.30;1.90;;;15.60;80.20;;;;;;5004895;28;20034;-68
2021/09/30 13:08:58;;;;;;;6.95;1.65;;;15.60;78.60;;;;;;5010651;28;20034;-68
2021/09/30 13:11:30;;;;;;;5.15;1.27;;;15.60;78.40;;;;;;5008972;28;20037;-68
2021/09/30 13:14:34;;;;;;;10.30;1.80;;;15.70;80.60;;;;;;5011249;28;20042;-69
2021/09/30 13:17:06;;;;;;;6.45;1.63;;;15.60;79.40;;;;;;5008261;28;20033;-68
2021/09/30 13:19:57;;;;;;;9.48;1.77;;;15.60;79.10;;;;;;5001597;28;20557;-68
2021/09/30 13:22:33;;;;;;;;;;;15.60;79.00;;;;;;5004361;28;20057;-69
2021/09/30 13:25:07;;;;;;;6.38;1.75;;;15.60;78.00;;;;;;5008694;28;19992;-68
2021/09/30 13:27:35;;;;;;;4.95;1.45;;;15.60;76.90;;;;;;5008232;28;20126;-68
2021/09/30 13:30:05;;;;;;;6.70;1.55;;;15.60;77.10;;;;;;5005453;28;20037;-69
2021/09/30 13:32:32;;;;;;;7.43;1.67;;;15.60;76.10;;;;;;5006855;28;20033;-68
2021/09/30 13:34:58;;;;;;;6.70;1.80;;;15.60;77.00;;;;;;5006257;28;20628;-68
2021/09/30 13:37:25;;;;;;;9.20;1.83;;;15.60;76.10;;;;;;5009165;28;20042;-69
2021/09/30 13:39:56;;;;;;;7.18;2.10;;;15.60;81.90;;;;;;5010140;28;20022;-68
2021/09/30 13:42:26;;;;;;;5.88;1.73;;;15.70;78.10;;;;;;5007590;28;20037;-68
2021/09/30 13:44:52;;;;;;;6.88;1.63;;;15.60;80.30;;;;;;5003818;28;20026;-66
2021/09/30 13:47:17;;;;;;;7.78;1.50;;;15.60;79.00;;;;;;5002718;28;20369;-67
2021/09/30 13:49:43;;;;;;;7.45;1.27;;;15.60;77.00;;;;;;5002138;28;20112;-67
2021/09/30 13:52:09;;;;;;;5.78;1.27;;;15.60;79.40;;;;;;5003254;28;20037;-67
2021/09/30 13:54:35;;;;;;;2.90;1.25;;;15.60;78.70;;;;;;5006575;28;20478;-67
2021/09/30 13:57:01;;;;;;;6.25;2.22;;;15.70;79.80;;;;;;5002428;28;20064;-67
2021/09/30 13:59:27;;;;;;;7.90;1.73;;;15.80;80.40;;;;;;5000758;28;20052;-68
2021/09/30 14:01:52;;;;;;;7.40;1.65;;;15.90;77.10;;;;;;5005049;28;20365;-69
2021/09/30 14:04:18;;;;;;;9.50;2.00;;;16.00;79.70;;;;;;5007868;28;20110;-67
2021/09/30 14:06:44;;;;;;;5.22;1.73;;;16.00;76.30;;;;;;5006860;28;20033;-68
2021/09/30 14:09:09;;;;;;;6.65;1.55;;;16.00;78.30;;;;;;5005391;28;20399;-69
2021/09/30 14:11:35;;;;;;;6.60;1.38;;;16.00;78.60;;;;;;5007193;28;20042;-69
2021/09/30 14:14:01;;;;;;;6.15;1.52;;;16.10;80.40;;;;;;5008044;28;20535;-67
2021/09/30 14:16:27;;;;;;;4.75;1.45;;;16.10;77.30;;;;;;5006672;28;20042;-68
2021/09/30 14:18:53;;;;;;;5.05;1.40;;;16.10;79.70;;;;;;5003508;28;20433;-67
2021/09/30 14:21:19;;;;;;;4.65;1.38;;;16.20;77.50;;;;;;5007056;28;20041;-68
2021/09/30 14:23:45;;;;;;;10.85;1.95;;;16.30;75.70;;;;;;5005510;28;20108;-71
2021/09/30 14:26:11;;;;;;;7.68;1.60;;;16.20;74.50;;;;;;5009211;28;20503;-68
2021/09/30 14:28:38;;;;;;;6.53;1.80;;;16.20;76.90;;;;;;5011702;28;20460;-69
2021/09/30 14:31:04;;;;;;;5.25;1.05;;;16.30;77.20;;;;;;5003824;28;20682;-70
2021/09/30 14:33:32;;;;;;;5.70;1.00;;;16.30;77.20;;;;;;4997063;28;20080;-69
2021/09/30 14:36:00;;;;;;;5.80;1.83;;;16.30;78.60;;;;;;5003914;28;20038;-68
2021/09/30 14:38:26;;;;;;;3.88;1.30;;;16.20;75.00;;;;;;5007319;28;20091;-70
2021/09/30 14:40:54;;;;;;;3.08;1.15;;;16.20;78.50;;;;;;5008804;28;20514;-69
2021/09/30 14:43:22;;;;;;;6.47;1.42;;;16.20;77.20;;;;;;5009506;28;20033;-70
2021/09/30 14:45:50;;;;;;;4.10;1.05;;;16.20;77.70;;;;;;5010651;28;20624;-69
2021/09/30 14:48:16;;;;;;;4.53;1.13;;;16.20;80.20;;;;;;5006676;28;20034;-69
2021/09/30 14:50:42;;;;;;;4.65;1.10;;;16.10;77.50;;;;;;5008219;28;20038;-69
2021/09/30 14:53:10;;;;;;;5.43;1.20;;;16.10;77.00;;;;;;5006050;28;20030;-68
2021/09/30 14:55:36;;;;;;;4.03;1.30;;;16.00;77.80;;;;;;5009808;28;20642;-68
2021/09/30 14:58:02;;;;;;;4.38;1.48;;;15.90;79.40;;;;;;5005722;28;20459;-69
2021/09/30 15:00:28;;;;;;;8.05;1.40;;;15.90;78.70;;;;;;5003801;28;20064;-69
2021/09/30 15:02:54;;;;;;;4.72;1.35;;;15.80;77.30;;;;;;5006773;28;20038;-68
2021/09/30 15:05:20;;;;;;;3.13;1.20;;;15.70;77.90;;;;;;5007406;28;20026;-68
2021/09/30 15:07:46;;;;;;;5.40;1.40;;;15.60;78.00;;;;;;4990367;28;20157;-68
2021/09/30 15:10:11;;;;;;;4.50;0.95;;;15.50;76.20;;;;;;5001848;28;20026;-68
2021/09/30 15:12:37;;;;;;;5.95;1.30;;;15.40;76.00;;;;;;5001481;28;20117;-68
2021/09/30 15:15:05;;;;;;;6.50;1.40;;;15.30;78.30;;;;;;5003979;28;20071;-68
2021/09/30 15:22:31;;;;;;;4.88;1.00;;;15.20;77.30;;;;;;4999566;28;20038;-68
2021/09/30 15:24:57;;;;;;;4.85;1.20;;;15.30;79.40;;;;;;5001863;28;20089;-68
2021/09/30 15:27:23;;;;;;;14.13;1.50;;;15.30;78.60;;;;;;5008431;28;20026;-68
2021/09/30 15:29:49;;;;;;;5.10;1.27;;;15.30;75.40;;;;;;5006306;28;20029;-68
2021/09/30 15:32:15;;;;;;;7.50;1.75;;;15.30;79.00;;;;;;5004688;28;20049;-68
2021/09/30 15:34:41;;;;;;;7.43;1.27;;;15.20;79.30;;;;;;5005016;28;20041;-68
2021/09/30 15:37:07;;;;;;;4.78;1.10;;;15.10;78.90;;;;;;4997039;28;20381;-68
2021/09/30 15:39:33;;;;;;;4.00;1.13;;;15.00;80.90;;;;;;5007479;28;20022;-68
2021/09/30 15:42:00;;;;;;;4.50;1.60;;;15.00;82.20;;;;;;5003451;28;20038;-69
2021/09/30 15:44:27;;;;;;;5.55;1.85;;;14.90;83.30;;;;;;5007418;28;20080;-69
2021/09/30 15:46:54;;;;;;;3.28;1.23;;;14.80;80.70;;;;;;5006103;28;20097;-70
2021/09/30 15:49:20;;;;;;;7.72;1.98;;;14.70;84.00;;;;;;5001091;28;20069;-71
2021/09/30 15:51:46;;;;;;;3.10;1.42;;;14.70;80.50;;;;;;5002906;28;20441;-69
2021/09/30 15:54:13;;;;;;;7.00;1.30;;;14.60;80.40;;;;;;4991822;28;20041;-69